sensor_id;sensor_type;location;lat;lon;timestamp;P1;durP1;ratioP1;P2;durP2;ratioP2
42614;SDS011;28754;47.700;7.924;2022-08-19T00:00:07;3.97;;;3.38;;
42614;SDS011;28754;47.700;7.924;2022-08-19T00:02:56;3.78;;;3.38;;
42614;SDS011;28754;47.700;7.924;2022-08-19T00:05:43;4.22;;;3.80;;
42614;SDS011;28754;47.700;7.924;2022-08-19T00:08:29;4.18;;;3.78;;
42614;SDS011;28754;47.700;7.924;2022-08-19T00:11:17;6.25;;;4.63;;
42614;SDS011;28754;47.700;7.924;2022-08-19T00:14:05;5.68;;;4.57;;
42614;SDS011;28754;47.700;7.924;2022-08-19T00:16:55;4.50;;;3.97;;
42614;SDS011;28754;47.700;7.924;2022-08-19T00:19:42;7.15;;;4.75;;
42614;SDS011;28754;47.700;7.924;2022-08-19T00:22:29;5.72;;;4.93;;
42614;SDS011;28754;47.700;7.924;2022-08-19T00:25:15;6.30;;;5.60;;
42614;SDS011;28754;47.700;7.924;2022-08-19T00:28:03;5.88;;;4.85;;
42614;SDS011;28754;47.700;7.924;2022-08-19T00:30:50;7.38;;;4.95;;
42614;SDS011;28754;47.700;7.924;2022-08-19T00:33:38;14.45;;;6.65;;
42614;SDS011;28754;47.700;7.924;2022-08-19T00:36:25;7.38;;;6.25;;
42614;SDS011;28754;47.700;7.924;2022-08-19T00:39:16;8.35;;;6.38;;
42614;SDS011;28754;47.700;7.924;2022-08-19T00:42:03;11.75;;;8.40;;
42614;SDS011;28754;47.700;7.924;2022-08-19T00:44:52;10.20;;;8.45;;
42614;SDS011;28754;47.700;7.924;2022-08-19T00:47:38;11.18;;;9.13;;
42614;SDS011;28754;47.700;7.924;2022-08-19T00:50:26;12.43;;;8.68;;
42614;SDS011;28754;47.700;7.924;2022-08-19T00:53:14;11.27;;;9.13;;
42614;SDS011;28754;47.700;7.924;2022-08-19T00:56:05;11.30;;;9.05;;
42614;SDS011;28754;47.700;7.924;2022-08-19T00:58:53;10.15;;;9.05;;
42614;SDS011;28754;47.700;7.924;2022-08-19T01:01:43;17.63;;;11.30;;
42614;SDS011;28754;47.700;7.924;2022-08-19T01:04:32;13.25;;;10.38;;
42614;SDS011;28754;47.700;7.924;2022-08-19T01:07:18;14.15;;;9.93;;
42614;SDS011;28754;47.700;7.924;2022-08-19T01:10:06;8.52;;;7.55;;
42614;SDS011;28754;47.700;7.924;2022-08-19T01:13:00;10.23;;;8.38;;
42614;SDS011;28754;47.700;7.924;2022-08-19T01:15:50;10.27;;;7.50;;
42614;SDS011;28754;47.700;7.924;2022-08-19T01:18:42;8.27;;;7.30;;
42614;SDS011;28754;47.700;7.924;2022-08-19T01:21:34;11.65;;;9.32;;
42614;SDS011;28754;47.700;7.924;2022-08-19T01:24:32;11.02;;;8.85;;
42614;SDS011;28754;47.700;7.924;2022-08-19T01:27:18;12.48;;;9.45;;
42614;SDS011;28754;47.700;7.924;2022-08-19T01:30:05;11.95;;;8.55;;
42614;SDS011;28754;47.700;7.924;2022-08-19T01:32:54;18.33;;;9.70;;
42614;SDS011;28754;47.700;7.924;2022-08-19T01:35:42;13.30;;;9.10;;
42614;SDS011;28754;47.700;7.924;2022-08-19T01:38:28;10.57;;;8.55;;
42614;SDS011;28754;47.700;7.924;2022-08-19T01:41:17;8.88;;;7.97;;
42614;SDS011;28754;47.700;7.924;2022-08-19T01:44:05;10.10;;;7.93;;
42614;SDS011;28754;47.700;7.924;2022-08-19T01:46:54;9.93;;;7.72;;
42614;SDS011;28754;47.700;7.924;2022-08-19T01:49:41;13.80;;;7.53;;
42614;SDS011;28754;47.700;7.924;2022-08-19T01:52:27;12.00;;;9.00;;
42614;SDS011;28754;47.700;7.924;2022-08-19T01:55:16;9.27;;;7.40;;
42614;SDS011;28754;47.700;7.924;2022-08-19T01:58:06;10.43;;;8.75;;
42614;SDS011;28754;47.700;7.924;2022-08-19T02:00:59;9.40;;;8.40;;
42614;SDS011;28754;47.700;7.924;2022-08-19T02:03:46;9.88;;;7.85;;
42614;SDS011;28754;47.700;7.924;2022-08-19T02:06:33;9.45;;;7.72;;
42614;SDS011;28754;47.700;7.924;2022-08-19T02:09:20;9.98;;;8.10;;
42614;SDS011;28754;47.700;7.924;2022-08-19T02:12:07;11.38;;;10.13;;
42614;SDS011;28754;47.700;7.924;2022-08-19T02:14:54;10.35;;;8.27;;
42614;SDS011;28754;47.700;7.924;2022-08-19T02:17:41;9.82;;;7.75;;
42614;SDS011;28754;47.700;7.924;2022-08-19T02:20:28;9.75;;;8.07;;
42614;SDS011;28754;47.700;7.924;2022-08-19T02:23:15;9.13;;;8.23;;
42614;SDS011;28754;47.700;7.924;2022-08-19T02:26:03;10.40;;;7.78;;
42614;SDS011;28754;47.700;7.924;2022-08-19T02:28:49;8.88;;;7.93;;
42614;SDS011;28754;47.700;7.924;2022-08-19T02:31:36;9.30;;;7.20;;
42614;SDS011;28754;47.700;7.924;2022-08-19T02:34:23;10.13;;;7.47;;
42614;SDS011;28754;47.700;7.924;2022-08-19T02:37:10;8.75;;;6.88;;
42614;SDS011;28754;47.700;7.924;2022-08-19T02:40:17;10.27;;;8.43;;
42614;SDS011;28754;47.700;7.924;2022-08-19T02:43:05;8.73;;;7.38;;
42614;SDS011;28754;47.700;7.924;2022-08-19T02:45:54;9.68;;;7.90;;
42614;SDS011;28754;47.700;7.924;2022-08-19T02:48:41;10.02;;;7.25;;
42614;SDS011;28754;47.700;7.924;2022-08-19T02:51:29;8.65;;;7.75;;
42614;SDS011;28754;47.700;7.924;2022-08-19T02:54:22;9.70;;;8.02;;
42614;SDS011;28754;47.700;7.924;2022-08-19T02:57:09;10.15;;;8.70;;
42614;SDS011;28754;47.700;7.924;2022-08-19T02:59:56;8.55;;;7.40;;
42614;SDS011;28754;47.700;7.924;2022-08-19T03:02:43;10.40;;;8.25;;
42614;SDS011;28754;47.700;7.924;2022-08-19T03:05:30;11.60;;;9.25;;
42614;SDS011;28754;47.700;7.924;2022-08-19T03:08:16;17.77;;;8.60;;
42614;SDS011;28754;47.700;7.924;2022-08-19T03:11:03;36.97;;;9.38;;
42614;SDS011;28754;47.700;7.924;2022-08-19T03:13:50;74.32;;;12.90;;
42614;SDS011;28754;47.700;7.924;2022-08-19T03:16:46;37.08;;;10.55;;
42614;SDS011;28754;47.700;7.924;2022-08-19T03:19:36;74.10;;;11.48;;
42614;SDS011;28754;47.700;7.924;2022-08-19T03:22:24;30.40;;;10.00;;
42614;SDS011;28754;47.700;7.924;2022-08-19T03:25:11;89.93;;;11.02;;
42614;SDS011;28754;47.700;7.924;2022-08-19T03:27:57;47.15;;;10.63;;
42614;SDS011;28754;47.700;7.924;2022-08-19T03:30:54;152.50;;;13.55;;
42614;SDS011;28754;47.700;7.924;2022-08-19T03:33:57;26.35;;;9.85;;
42614;SDS011;28754;47.700;7.924;2022-08-19T03:36:43;53.47;;;11.27;;
42614;SDS011;28754;47.700;7.924;2022-08-19T03:39:31;60.70;;;11.40;;
42614;SDS011;28754;47.700;7.924;2022-08-19T03:42:18;42.53;;;11.90;;
42614;SDS011;28754;47.700;7.924;2022-08-19T03:45:05;136.15;;;14.70;;
42614;SDS011;28754;47.700;7.924;2022-08-19T03:47:53;195.45;;;16.45;;
42614;SDS011;28754;47.700;7.924;2022-08-19T03:50:40;205.10;;;16.27;;
42614;SDS011;28754;47.700;7.924;2022-08-19T03:53:27;422.02;;;26.60;;
42614;SDS011;28754;47.700;7.924;2022-08-19T03:56:16;436.65;;;27.00;;
42614;SDS011;28754;47.700;7.924;2022-08-19T03:59:03;253.38;;;20.13;;
42614;SDS011;28754;47.700;7.924;2022-08-19T04:01:54;337.60;;;20.92;;
42614;SDS011;28754;47.700;7.924;2022-08-19T04:04:44;406.65;;;23.80;;
42614;SDS011;28754;47.700;7.924;2022-08-19T04:07:30;185.13;;;16.10;;
42614;SDS011;28754;47.700;7.924;2022-08-19T04:10:17;29.63;;;14.77;;
42614;SDS011;28754;47.700;7.924;2022-08-19T04:13:04;19.30;;;15.32;;
42614;SDS011;28754;47.700;7.924;2022-08-19T04:15:52;21.15;;;14.98;;
42614;SDS011;28754;47.700;7.924;2022-08-19T04:18:39;21.02;;;16.75;;
42614;SDS011;28754;47.700;7.924;2022-08-19T04:21:26;20.05;;;16.30;;
42614;SDS011;28754;47.700;7.924;2022-08-19T04:24:14;16.63;;;13.18;;
42614;SDS011;28754;47.700;7.924;2022-08-19T04:27:02;18.88;;;14.43;;
42614;SDS011;28754;47.700;7.924;2022-08-19T04:29:49;28.88;;;15.82;;
42614;SDS011;28754;47.700;7.924;2022-08-19T04:32:36;53.70;;;15.95;;
42614;SDS011;28754;47.700;7.924;2022-08-19T04:35:23;105.75;;;18.55;;
42614;SDS011;28754;47.700;7.924;2022-08-19T04:38:10;48.05;;;16.00;;
42614;SDS011;28754;47.700;7.924;2022-08-19T04:40:58;20.10;;;14.90;;
42614;SDS011;28754;47.700;7.924;2022-08-19T04:44:03;28.13;;;15.82;;
42614;SDS011;28754;47.700;7.924;2022-08-19T04:46:51;101.65;;;21.58;;
42614;SDS011;28754;47.700;7.924;2022-08-19T04:49:38;230.57;;;26.48;;
42614;SDS011;28754;47.700;7.924;2022-08-19T04:52:25;140.40;;;22.52;;
42614;SDS011;28754;47.700;7.924;2022-08-19T04:55:11;28.17;;;15.00;;
42614;SDS011;28754;47.700;7.924;2022-08-19T04:57:59;20.05;;;14.98;;
42614;SDS011;28754;47.700;7.924;2022-08-19T05:00:46;25.33;;;16.60;;
42614;SDS011;28754;47.700;7.924;2022-08-19T05:03:33;73.20;;;17.52;;
42614;SDS011;28754;47.700;7.924;2022-08-19T05:06:21;39.38;;;15.35;;
42614;SDS011;28754;47.700;7.924;2022-08-19T05:09:08;173.70;;;22.75;;
42614;SDS011;28754;47.700;7.924;2022-08-19T05:11:55;184.25;;;22.27;;
42614;SDS011;28754;47.700;7.924;2022-08-19T05:14:42;212.75;;;23.85;;
42614;SDS011;28754;47.700;7.924;2022-08-19T05:17:31;115.05;;;18.35;;
42614;SDS011;28754;47.700;7.924;2022-08-19T05:20:17;183.40;;;20.25;;
42614;SDS011;28754;47.700;7.924;2022-08-19T05:23:23;152.32;;;18.92;;
42614;SDS011;28754;47.700;7.924;2022-08-19T05:26:09;65.88;;;16.00;;
42614;SDS011;28754;47.700;7.924;2022-08-19T05:28:57;238.38;;;26.83;;
42614;SDS011;28754;47.700;7.924;2022-08-19T05:31:44;122.85;;;18.95;;
42614;SDS011;28754;47.700;7.924;2022-08-19T05:34:32;287.92;;;25.17;;
42614;SDS011;28754;47.700;7.924;2022-08-19T05:37:19;118.05;;;19.05;;
42614;SDS011;28754;47.700;7.924;2022-08-19T05:40:06;297.20;;;28.83;;
42614;SDS011;28754;47.700;7.924;2022-08-19T05:42:54;37.90;;;15.40;;
42614;SDS011;28754;47.700;7.924;2022-08-19T05:45:42;96.85;;;15.63;;
42614;SDS011;28754;47.700;7.924;2022-08-19T05:48:29;355.70;;;29.48;;
42614;SDS011;28754;47.700;7.924;2022-08-19T05:51:16;353.85;;;26.80;;
42614;SDS011;28754;47.700;7.924;2022-08-19T05:54:03;137.18;;;18.05;;
42614;SDS011;28754;47.700;7.924;2022-08-19T05:56:52;49.47;;;13.82;;
42614;SDS011;28754;47.700;7.924;2022-08-19T05:59:39;318.60;;;27.52;;
42614;SDS011;28754;47.700;7.924;2022-08-19T06:02:26;313.95;;;29.98;;
42614;SDS011;28754;47.700;7.924;2022-08-19T06:05:16;179.63;;;23.38;;
42614;SDS011;28754;47.700;7.924;2022-08-19T06:08:03;301.05;;;28.10;;
42614;SDS011;28754;47.700;7.924;2022-08-19T06:10:50;50.88;;;17.88;;
42614;SDS011;28754;47.700;7.924;2022-08-19T06:13:36;199.10;;;25.20;;
42614;SDS011;28754;47.700;7.924;2022-08-19T06:16:24;87.88;;;18.88;;
42614;SDS011;28754;47.700;7.924;2022-08-19T06:19:12;36.22;;;15.77;;
42614;SDS011;28754;47.700;7.924;2022-08-19T06:22:02;20.55;;;15.50;;
42614;SDS011;28754;47.700;7.924;2022-08-19T06:24:49;20.33;;;15.48;;
42614;SDS011;28754;47.700;7.924;2022-08-19T06:27:38;20.17;;;17.77;;
42614;SDS011;28754;47.700;7.924;2022-08-19T06:30:26;24.17;;;16.77;;
42614;SDS011;28754;47.700;7.924;2022-08-19T06:33:13;20.92;;;17.77;;
42614;SDS011;28754;47.700;7.924;2022-08-19T06:35:59;22.80;;;18.08;;
42614;SDS011;28754;47.700;7.924;2022-08-19T06:38:46;22.63;;;17.20;;
42614;SDS011;28754;47.700;7.924;2022-08-19T06:41:37;23.63;;;17.63;;
42614;SDS011;28754;47.700;7.924;2022-08-19T06:44:35;25.95;;;18.45;;
42614;SDS011;28754;47.700;7.924;2022-08-19T06:47:24;24.10;;;18.63;;
42614;SDS011;28754;47.700;7.924;2022-08-19T06:50:11;25.02;;;18.33;;
42614;SDS011;28754;47.700;7.924;2022-08-19T06:52:58;22.35;;;18.40;;
42614;SDS011;28754;47.700;7.924;2022-08-19T06:55:45;23.08;;;18.75;;
42614;SDS011;28754;47.700;7.924;2022-08-19T06:58:32;23.50;;;18.33;;
42614;SDS011;28754;47.700;7.924;2022-08-19T07:01:19;21.85;;;17.85;;
42614;SDS011;28754;47.700;7.924;2022-08-19T07:04:06;27.77;;;19.63;;
42614;SDS011;28754;47.700;7.924;2022-08-19T07:06:59;29.08;;;20.60;;
42614;SDS011;28754;47.700;7.924;2022-08-19T07:09:55;29.27;;;19.65;;
42614;SDS011;28754;47.700;7.924;2022-08-19T07:12:42;27.63;;;21.70;;
42614;SDS011;28754;47.700;7.924;2022-08-19T07:15:29;29.60;;;22.48;;
42614;SDS011;28754;47.700;7.924;2022-08-19T07:18:18;38.50;;;24.77;;
42614;SDS011;28754;47.700;7.924;2022-08-19T07:21:07;29.17;;;22.38;;
42614;SDS011;28754;47.700;7.924;2022-08-19T07:23:58;40.67;;;24.90;;
42614;SDS011;28754;47.700;7.924;2022-08-19T07:26:45;29.50;;;21.85;;
42614;SDS011;28754;47.700;7.924;2022-08-19T07:29:33;35.17;;;26.48;;
42614;SDS011;28754;47.700;7.924;2022-08-19T07:32:21;38.25;;;27.05;;
42614;SDS011;28754;47.700;7.924;2022-08-19T07:35:08;36.13;;;25.35;;
42614;SDS011;28754;47.700;7.924;2022-08-19T07:37:56;39.03;;;25.10;;
42614;SDS011;28754;47.700;7.924;2022-08-19T07:40:43;37.08;;;26.58;;
42614;SDS011;28754;47.700;7.924;2022-08-19T07:43:32;33.17;;;24.65;;
42614;SDS011;28754;47.700;7.924;2022-08-19T07:46:19;36.67;;;25.55;;
42614;SDS011;28754;47.700;7.924;2022-08-19T07:49:07;36.97;;;25.92;;
42614;SDS011;28754;47.700;7.924;2022-08-19T07:52:00;35.90;;;26.17;;
42614;SDS011;28754;47.700;7.924;2022-08-19T07:54:52;36.83;;;26.55;;
42614;SDS011;28754;47.700;7.924;2022-08-19T07:57:39;33.88;;;26.00;;
42614;SDS011;28754;47.700;7.924;2022-08-19T08:00:26;31.88;;;25.13;;
42614;SDS011;28754;47.700;7.924;2022-08-19T08:03:13;34.95;;;25.50;;
42614;SDS011;28754;47.700;7.924;2022-08-19T08:06:02;41.75;;;28.48;;
42614;SDS011;28754;47.700;7.924;2022-08-19T08:09:08;40.03;;;27.60;;
42614;SDS011;28754;47.700;7.924;2022-08-19T08:12:06;40.55;;;29.38;;
42614;SDS011;28754;47.700;7.924;2022-08-19T08:15:04;39.20;;;28.15;;
42614;SDS011;28754;47.700;7.924;2022-08-19T08:17:57;40.58;;;28.02;;
42614;SDS011;28754;47.700;7.924;2022-08-19T08:20:44;36.80;;;27.33;;
42614;SDS011;28754;47.700;7.924;2022-08-19T08:23:31;35.92;;;25.08;;
42614;SDS011;28754;47.700;7.924;2022-08-19T08:26:17;35.85;;;24.77;;
42614;SDS011;28754;47.700;7.924;2022-08-19T08:29:04;42.28;;;28.65;;
42614;SDS011;28754;47.700;7.924;2022-08-19T08:31:53;41.30;;;27.83;;
42614;SDS011;28754;47.700;7.924;2022-08-19T08:34:40;37.97;;;26.27;;
42614;SDS011;28754;47.700;7.924;2022-08-19T08:37:27;36.40;;;26.48;;
42614;SDS011;28754;47.700;7.924;2022-08-19T08:40:27;37.42;;;26.55;;
42614;SDS011;28754;47.700;7.924;2022-08-19T08:43:29;38.08;;;26.58;;
42614;SDS011;28754;47.700;7.924;2022-08-19T08:52:47;35.67;;;26.13;;
42614;SDS011;28754;47.700;7.924;2022-08-19T08:55:39;32.08;;;24.58;;
42614;SDS011;28754;47.700;7.924;2022-08-19T08:58:28;38.75;;;26.05;;
42614;SDS011;28754;47.700;7.924;2022-08-19T09:01:42;34.38;;;24.90;;
42614;SDS011;28754;47.700;7.924;2022-08-19T09:04:29;34.70;;;25.85;;
42614;SDS011;28754;47.700;7.924;2022-08-19T09:10:52;35.22;;;26.02;;
42614;SDS011;28754;47.700;7.924;2022-08-19T09:13:48;34.35;;;26.33;;
42614;SDS011;28754;47.700;7.924;2022-08-19T09:16:57;28.63;;;22.00;;
42614;SDS011;28754;47.700;7.924;2022-08-19T09:19:49;37.42;;;26.48;;
42614;SDS011;28754;47.700;7.924;2022-08-19T09:22:44;37.28;;;26.85;;
42614;SDS011;28754;47.700;7.924;2022-08-19T09:25:31;34.67;;;24.83;;
42614;SDS011;28754;47.700;7.924;2022-08-19T09:28:20;34.67;;;25.13;;
42614;SDS011;28754;47.700;7.924;2022-08-19T09:31:06;36.88;;;26.40;;
42614;SDS011;28754;47.700;7.924;2022-08-19T09:33:53;31.08;;;23.45;;
42614;SDS011;28754;47.700;7.924;2022-08-19T09:36:43;35.78;;;25.45;;
42614;SDS011;28754;47.700;7.924;2022-08-19T09:39:29;31.33;;;23.85;;
42614;SDS011;28754;47.700;7.924;2022-08-19T09:42:16;41.53;;;27.33;;
42614;SDS011;28754;47.700;7.924;2022-08-19T09:45:03;30.05;;;24.33;;
42614;SDS011;28754;47.700;7.924;2022-08-19T09:47:51;30.17;;;23.48;;
42614;SDS011;28754;47.700;7.924;2022-08-19T09:50:39;30.23;;;24.20;;
42614;SDS011;28754;47.700;7.924;2022-08-19T09:53:26;33.40;;;24.92;;
42614;SDS011;28754;47.700;7.924;2022-08-19T09:56:13;34.63;;;24.83;;
42614;SDS011;28754;47.700;7.924;2022-08-19T09:59:00;30.92;;;23.65;;
42614;SDS011;28754;47.700;7.924;2022-08-19T10:01:49;33.88;;;24.85;;
42614;SDS011;28754;47.700;7.924;2022-08-19T10:04:37;30.42;;;21.77;;
42614;SDS011;28754;47.700;7.924;2022-08-19T10:07:42;34.55;;;24.65;;
42614;SDS011;28754;47.700;7.924;2022-08-19T10:10:29;31.08;;;22.67;;
42614;SDS011;28754;47.700;7.924;2022-08-19T10:13:16;30.40;;;22.05;;
42614;SDS011;28754;47.700;7.924;2022-08-19T10:16:12;32.38;;;24.13;;
42614;SDS011;28754;47.700;7.924;2022-08-19T10:21:52;39.88;;;23.67;;
42614;SDS011;28754;47.700;7.924;2022-08-19T10:24:40;30.77;;;23.38;;
42614;SDS011;28754;47.700;7.924;2022-08-19T10:27:27;36.17;;;24.10;;
42614;SDS011;28754;47.700;7.924;2022-08-19T10:30:13;29.00;;;22.35;;
42614;SDS011;28754;47.700;7.924;2022-08-19T10:33:00;31.02;;;24.50;;
42614;SDS011;28754;47.700;7.924;2022-08-19T10:35:47;32.78;;;25.13;;
42614;SDS011;28754;47.700;7.924;2022-08-19T10:38:35;32.95;;;25.42;;
42614;SDS011;28754;47.700;7.924;2022-08-19T10:41:23;29.77;;;24.25;;
42614;SDS011;28754;47.700;7.924;2022-08-19T10:44:16;33.20;;;25.98;;
42614;SDS011;28754;47.700;7.924;2022-08-19T10:47:03;33.15;;;25.58;;
42614;SDS011;28754;47.700;7.924;2022-08-19T10:49:52;28.23;;;23.80;;
42614;SDS011;28754;47.700;7.924;2022-08-19T10:53:02;33.17;;;25.67;;
42614;SDS011;28754;47.700;7.924;2022-08-19T10:55:52;29.85;;;24.30;;
42614;SDS011;28754;47.700;7.924;2022-08-19T11:01:44;34.63;;;24.95;;
42614;SDS011;28754;47.700;7.924;2022-08-19T11:04:31;31.50;;;25.85;;
42614;SDS011;28754;47.700;7.924;2022-08-19T11:07:19;33.67;;;27.88;;
42614;SDS011;28754;47.700;7.924;2022-08-19T11:10:08;36.53;;;28.25;;
42614;SDS011;28754;47.700;7.924;2022-08-19T11:12:57;39.15;;;28.33;;
42614;SDS011;28754;47.700;7.924;2022-08-19T11:15:46;35.45;;;26.50;;
42614;SDS011;28754;47.700;7.924;2022-08-19T11:18:34;31.73;;;27.92;;
42614;SDS011;28754;47.700;7.924;2022-08-19T11:21:29;36.67;;;28.02;;
42614;SDS011;28754;47.700;7.924;2022-08-19T11:24:23;32.15;;;26.65;;
42614;SDS011;28754;47.700;7.924;2022-08-19T11:27:12;34.15;;;27.00;;
42614;SDS011;28754;47.700;7.924;2022-08-19T11:30:00;34.67;;;25.17;;
42614;SDS011;28754;47.700;7.924;2022-08-19T11:32:46;33.25;;;25.52;;
42614;SDS011;28754;47.700;7.924;2022-08-19T11:35:33;33.25;;;27.77;;
42614;SDS011;28754;47.700;7.924;2022-08-19T11:38:25;35.03;;;27.05;;
42614;SDS011;28754;47.700;7.924;2022-08-19T11:41:12;36.40;;;27.55;;
42614;SDS011;28754;47.700;7.924;2022-08-19T11:44:00;34.00;;;26.10;;
42614;SDS011;28754;47.700;7.924;2022-08-19T11:46:49;34.60;;;26.80;;
42614;SDS011;28754;47.700;7.924;2022-08-19T11:49:35;31.50;;;26.83;;
42614;SDS011;28754;47.700;7.924;2022-08-19T11:52:22;30.67;;;26.42;;
42614;SDS011;28754;47.700;7.924;2022-08-19T11:55:09;31.00;;;26.13;;
42614;SDS011;28754;47.700;7.924;2022-08-19T11:57:56;40.08;;;27.95;;
42614;SDS011;28754;47.700;7.924;2022-08-19T12:00:42;32.40;;;26.10;;
42614;SDS011;28754;47.700;7.924;2022-08-19T12:03:30;35.13;;;26.63;;
42614;SDS011;28754;47.700;7.924;2022-08-19T12:06:22;33.45;;;25.20;;
42614;SDS011;28754;47.700;7.924;2022-08-19T12:09:18;38.83;;;28.75;;
42614;SDS011;28754;47.700;7.924;2022-08-19T12:12:05;38.55;;;28.55;;
42614;SDS011;28754;47.700;7.924;2022-08-19T12:14:52;33.45;;;28.00;;
42614;SDS011;28754;47.700;7.924;2022-08-19T12:17:42;31.00;;;26.23;;
42614;SDS011;28754;47.700;7.924;2022-08-19T12:20:29;31.08;;;26.15;;
42614;SDS011;28754;47.700;7.924;2022-08-19T12:23:16;31.90;;;26.05;;
42614;SDS011;28754;47.700;7.924;2022-08-19T12:26:03;31.60;;;26.80;;
42614;SDS011;28754;47.700;7.924;2022-08-19T12:28:50;32.67;;;25.98;;
42614;SDS011;28754;47.700;7.924;2022-08-19T12:31:37;30.77;;;24.95;;
42614;SDS011;28754;47.700;7.924;2022-08-19T12:34:25;30.80;;;23.55;;
42614;SDS011;28754;47.700;7.924;2022-08-19T12:37:15;31.75;;;26.85;;
42614;SDS011;28754;47.700;7.924;2022-08-19T12:40:02;34.55;;;27.00;;
42614;SDS011;28754;47.700;7.924;2022-08-19T12:42:53;33.60;;;26.77;;
42614;SDS011;28754;47.700;7.924;2022-08-19T12:45:41;32.88;;;25.83;;
42614;SDS011;28754;47.700;7.924;2022-08-19T12:48:29;36.30;;;27.58;;
42614;SDS011;28754;47.700;7.924;2022-08-19T12:51:18;31.70;;;26.05;;
42614;SDS011;28754;47.700;7.924;2022-08-19T12:54:05;32.90;;;25.83;;
42614;SDS011;28754;47.700;7.924;2022-08-19T12:56:52;32.83;;;25.85;;
42614;SDS011;28754;47.700;7.924;2022-08-19T12:59:39;28.88;;;25.13;;
42614;SDS011;28754;47.700;7.924;2022-08-19T13:02:27;35.85;;;26.23;;
42614;SDS011;28754;47.700;7.924;2022-08-19T13:05:15;32.53;;;27.52;;
42614;SDS011;28754;47.700;7.924;2022-08-19T13:08:06;34.08;;;28.58;;
42614;SDS011;28754;47.700;7.924;2022-08-19T13:10:53;31.35;;;26.98;;
42614;SDS011;28754;47.700;7.924;2022-08-19T13:13:41;36.42;;;26.90;;
42614;SDS011;28754;47.700;7.924;2022-08-19T13:16:29;33.03;;;27.52;;
42614;SDS011;28754;47.700;7.924;2022-08-19T13:19:16;34.45;;;25.85;;
42614;SDS011;28754;47.700;7.924;2022-08-19T13:22:06;38.40;;;29.25;;
42614;SDS011;28754;47.700;7.924;2022-08-19T13:24:57;40.83;;;29.90;;
42614;SDS011;28754;47.700;7.924;2022-08-19T13:27:44;37.88;;;28.73;;
42614;SDS011;28754;47.700;7.924;2022-08-19T13:30:32;36.95;;;28.02;;
42614;SDS011;28754;47.700;7.924;2022-08-19T13:33:37;39.00;;;30.83;;
42614;SDS011;28754;47.700;7.924;2022-08-19T13:36:24;27.85;;;23.73;;
42614;SDS011;28754;47.700;7.924;2022-08-19T13:39:12;22.15;;;19.75;;
42614;SDS011;28754;47.700;7.924;2022-08-19T13:41:59;20.58;;;18.30;;
42614;SDS011;28754;47.700;7.924;2022-08-19T13:44:47;18.55;;;16.33;;
42614;SDS011;28754;47.700;7.924;2022-08-19T13:47:34;20.33;;;16.52;;
42614;SDS011;28754;47.700;7.924;2022-08-19T13:50:22;20.88;;;16.88;;
42614;SDS011;28754;47.700;7.924;2022-08-19T13:53:13;19.33;;;16.98;;
42614;SDS011;28754;47.700;7.924;2022-08-19T13:56:04;19.88;;;16.70;;
42614;SDS011;28754;47.700;7.924;2022-08-19T13:58:52;20.67;;;17.00;;
42614;SDS011;28754;47.700;7.924;2022-08-19T14:01:39;20.00;;;17.58;;
42614;SDS011;28754;47.700;7.924;2022-08-19T14:04:27;20.02;;;16.02;;
42614;SDS011;28754;47.700;7.924;2022-08-19T14:07:14;19.38;;;17.30;;
42614;SDS011;28754;47.700;7.924;2022-08-19T14:10:01;18.35;;;16.45;;
42614;SDS011;28754;47.700;7.924;2022-08-19T14:12:52;19.23;;;17.05;;
42614;SDS011;28754;47.700;7.924;2022-08-19T14:15:41;19.75;;;17.65;;
42614;SDS011;28754;47.700;7.924;2022-08-19T14:18:28;21.83;;;19.52;;
42614;SDS011;28754;47.700;7.924;2022-08-19T14:21:15;23.33;;;17.80;;
42614;SDS011;28754;47.700;7.924;2022-08-19T14:24:07;22.30;;;18.52;;
42614;SDS011;28754;47.700;7.924;2022-08-19T14:26:54;21.35;;;17.35;;
42614;SDS011;28754;47.700;7.924;2022-08-19T14:29:41;20.10;;;17.80;;
42614;SDS011;28754;47.700;7.924;2022-08-19T14:32:28;22.60;;;17.85;;
42614;SDS011;28754;47.700;7.924;2022-08-19T14:35:14;21.05;;;18.15;;
42614;SDS011;28754;47.700;7.924;2022-08-19T14:38:03;21.77;;;18.17;;
42614;SDS011;28754;47.700;7.924;2022-08-19T14:40:52;20.50;;;17.23;;
42614;SDS011;28754;47.700;7.924;2022-08-19T14:43:39;22.52;;;19.73;;
42614;SDS011;28754;47.700;7.924;2022-08-19T14:46:26;20.40;;;18.20;;
42614;SDS011;28754;47.700;7.924;2022-08-19T14:49:14;25.40;;;21.15;;
42614;SDS011;28754;47.700;7.924;2022-08-19T14:52:01;28.33;;;23.85;;
42614;SDS011;28754;47.700;7.924;2022-08-19T14:54:49;29.17;;;21.70;;
42614;SDS011;28754;47.700;7.924;2022-08-19T14:57:35;29.50;;;23.58;;
42614;SDS011;28754;47.700;7.924;2022-08-19T15:00:22;27.98;;;24.45;;
42614;SDS011;28754;47.700;7.924;2022-08-19T15:03:09;27.40;;;24.40;;
42614;SDS011;28754;47.700;7.924;2022-08-19T15:05:57;30.65;;;25.77;;
42614;SDS011;28754;47.700;7.924;2022-08-19T15:08:48;28.15;;;24.65;;
42614;SDS011;28754;47.700;7.924;2022-08-19T15:11:36;30.15;;;24.73;;
42614;SDS011;28754;47.700;7.924;2022-08-19T15:14:24;34.53;;;27.75;;
42614;SDS011;28754;47.700;7.924;2022-08-19T15:17:12;87.07;;;30.75;;
42614;SDS011;28754;47.700;7.924;2022-08-19T15:19:59;39.35;;;27.15;;
42614;SDS011;28754;47.700;7.924;2022-08-19T15:22:47;29.50;;;24.08;;
42614;SDS011;28754;47.700;7.924;2022-08-19T15:25:34;26.60;;;21.52;;
42614;SDS011;28754;47.700;7.924;2022-08-19T15:28:21;28.73;;;21.77;;
42614;SDS011;28754;47.700;7.924;2022-08-19T15:31:10;25.92;;;22.27;;
42614;SDS011;28754;47.700;7.924;2022-08-19T15:33:58;27.30;;;19.63;;
42614;SDS011;28754;47.700;7.924;2022-08-19T15:36:45;24.65;;;21.25;;
42614;SDS011;28754;47.700;7.924;2022-08-19T15:39:32;25.88;;;21.38;;
42614;SDS011;28754;47.700;7.924;2022-08-19T15:42:19;29.33;;;23.45;;
42614;SDS011;28754;47.700;7.924;2022-08-19T15:45:06;27.20;;;22.00;;
42614;SDS011;28754;47.700;7.924;2022-08-19T15:47:54;26.23;;;23.17;;
42614;SDS011;28754;47.700;7.924;2022-08-19T15:50:41;25.73;;;21.60;;
42614;SDS011;28754;47.700;7.924;2022-08-19T15:53:28;27.90;;;21.77;;
42614;SDS011;28754;47.700;7.924;2022-08-19T15:56:15;23.33;;;20.80;;
42614;SDS011;28754;47.700;7.924;2022-08-19T15:59:02;24.00;;;21.08;;
42614;SDS011;28754;47.700;7.924;2022-08-19T16:02:07;24.33;;;21.70;;
42614;SDS011;28754;47.700;7.924;2022-08-19T16:05:14;28.83;;;22.55;;
42614;SDS011;28754;47.700;7.924;2022-08-19T16:08:23;27.00;;;21.73;;
42614;SDS011;28754;47.700;7.924;2022-08-19T16:11:13;26.88;;;22.50;;
42614;SDS011;28754;47.700;7.924;2022-08-19T16:14:05;34.15;;;23.67;;
42614;SDS011;28754;47.700;7.924;2022-08-19T16:16:54;27.13;;;21.92;;
42614;SDS011;28754;47.700;7.924;2022-08-19T16:19:41;25.40;;;22.45;;
42614;SDS011;28754;47.700;7.924;2022-08-19T16:22:29;24.60;;;20.33;;
42614;SDS011;28754;47.700;7.924;2022-08-19T16:25:17;25.50;;;21.60;;
42614;SDS011;28754;47.700;7.924;2022-08-19T16:28:03;25.67;;;21.42;;
42614;SDS011;28754;47.700;7.924;2022-08-19T16:30:50;29.67;;;22.95;;
42614;SDS011;28754;47.700;7.924;2022-08-19T16:33:37;24.95;;;20.70;;
42614;SDS011;28754;47.700;7.924;2022-08-19T16:36:24;23.90;;;20.85;;
42614;SDS011;28754;47.700;7.924;2022-08-19T16:39:11;22.60;;;20.15;;
42614;SDS011;28754;47.700;7.924;2022-08-19T16:42:00;25.55;;;21.73;;
42614;SDS011;28754;47.700;7.924;2022-08-19T16:44:47;25.98;;;21.05;;